createdAt,value
2022-09-28T04:45:54.996Z,7.57
2022-09-28T04:46:55.969Z,7.55
2022-09-28T04:47:55.952Z,7.60
2022-09-28T04:48:55.941Z,7.60
2022-09-28T04:49:55.945Z,7.63
2022-09-28T04:50:55.929Z,7.63
2022-09-28T04:51:55.908Z,7.61
2022-09-28T04:52:55.898Z,7.61
2022-09-28T04:53:55.889Z,7.63
2022-09-28T04:54:55.886Z,7.63
2022-09-28T04:55:55.868Z,7.61
2022-09-28T04:56:55.854Z,7.61
2022-09-28T04:57:55.849Z,7.63
2022-09-28T04:58:55.832Z,7.60
2022-09-28T04:59:55.841Z,7.61
2022-09-28T05:00:55.869Z,7.57
2022-09-28T05:01:55.901Z,7.60
2022-09-28T05:02:55.790Z,7.55
2022-09-28T05:03:55.788Z,7.58
2022-09-28T05:04:55.804Z,7.57
2022-09-28T05:05:55.765Z,7.53
2022-09-28T05:06:55.749Z,7.55
2022-09-28T05:07:55.745Z,7.63
2022-09-28T05:08:55.726Z,7.58
2022-09-28T05:09:55.916Z,7.63
2022-09-28T05:10:55.704Z,7.60
2022-09-28T05:11:55.701Z,7.58
2022-09-28T05:12:55.689Z,7.63
2022-09-28T05:13:55.681Z,7.64
2022-09-28T05:14:55.673Z,7.63
2022-09-28T05:15:58.869Z,7.61
2022-09-28T05:16:55.718Z,7.57
2022-09-28T05:17:55.639Z,7.58
2022-09-28T05:18:55.622Z,7.55
2022-09-28T05:19:55.630Z,7.57
2022-09-28T05:20:55.636Z,7.55
2022-09-28T05:21:55.591Z,7.57
2022-09-28T05:22:55.577Z,7.57
2022-09-28T05:23:55.568Z,7.60
2022-09-28T05:24:55.575Z,7.61
2022-09-28T05:25:55.552Z,7.61
2022-09-28T05:26:55.567Z,7.63
2022-09-28T05:27:55.529Z,7.64
2022-09-28T05:28:55.519Z,7.64
2022-09-28T05:29:55.515Z,7.61
2022-09-28T05:30:55.597Z,7.60
2022-09-28T05:31:55.583Z,7.57
2022-09-28T05:32:55.477Z,7.58
2022-09-28T05:33:55.464Z,7.58
2022-09-28T05:34:55.464Z,7.60
2022-09-28T05:36:00.790Z,7.61
2022-09-28T05:36:55.440Z,7.61
2022-09-28T05:37:55.418Z,7.68
2022-09-28T05:38:55.424Z,7.69
2022-09-28T05:39:55.409Z,7.75
2022-09-28T05:40:55.542Z,7.74
2022-09-28T05:41:55.380Z,7.75
2022-09-28T05:42:55.361Z,7.74
2022-09-28T05:43:55.351Z,7.74
2022-09-28T05:44:55.367Z,7.79
2022-09-28T05:45:56.021Z,7.77
2022-09-28T05:46:55.330Z,7.79
2022-09-28T05:47:55.310Z,7.77
2022-09-28T05:48:55.312Z,7.85
2022-09-28T05:49:55.312Z,7.83
2022-09-28T05:50:55.293Z,7.82
2022-09-28T05:51:55.279Z,7.77
2022-09-28T05:52:55.275Z,7.80
2022-09-28T05:53:55.255Z,7.82
2022-09-28T05:54:55.269Z,7.87
2022-09-28T05:55:55.239Z,7.92
2022-09-28T05:56:55.223Z,7.89
2022-09-28T05:57:55.311Z,7.93
2022-09-28T05:58:55.202Z,7.95
2022-09-28T05:59:55.194Z,7.98
2022-09-28T06:00:55.265Z,7.97
2022-09-28T06:01:55.160Z,7.97
2022-09-28T06:02:55.167Z,7.97
2022-09-28T06:03:55.148Z,7.95
2022-09-28T06:04:55.135Z,7.98
2022-09-28T06:05:55.128Z,7.95
2022-09-28T06:06:55.109Z,7.93
2022-09-28T06:07:55.091Z,8.00
2022-09-28T06:08:55.088Z,7.95
2022-09-28T06:09:55.076Z,7.92
2022-09-28T06:10:55.077Z,7.97
2022-09-28T06:11:55.057Z,8.02
2022-09-28T06:12:55.046Z,8.02
2022-09-28T06:13:55.034Z,8.00
2022-09-28T06:14:55.041Z,8.02
2022-09-28T06:15:55.021Z,7.98
2022-09-28T06:16:55.027Z,8.00
2022-09-28T06:17:54.992Z,8.00
2022-09-28T06:18:54.986Z,8.01
2022-09-28T06:19:54.967Z,8.01
2022-09-28T06:20:54.973Z,7.98
2022-09-28T06:21:54.959Z,7.90
2022-09-28T06:22:55.022Z,7.87
2022-09-28T06:23:54.934Z,7.87
2022-09-28T06:24:54.927Z,7.90
2022-09-28T06:25:54.919Z,7.89
2022-09-28T06:26:54.903Z,7.85
2022-09-28T06:27:54.910Z,7.86
2022-09-28T06:28:54.875Z,7.80
2022-09-28T06:29:54.870Z,7.82
2022-09-28T06:30:54.911Z,7.82
2022-09-28T06:31:54.853Z,7.82
2022-09-28T06:32:54.946Z,7.82
2022-09-28T06:33:54.827Z,7.82
2022-09-28T06:34:56.507Z,7.80
2022-09-28T06:35:54.831Z,7.83
2022-09-28T06:36:54.819Z,7.85
2022-09-28T06:37:54.824Z,7.86
2022-09-28T06:38:54.778Z,7.87
2022-09-28T06:39:54.772Z,7.80
2022-09-28T06:40:54.849Z,7.80
2022-09-28T06:41:54.735Z,7.77
2022-09-28T06:42:54.753Z,7.80
2022-09-28T06:43:54.713Z,7.86
2022-09-28T06:44:54.721Z,7.92
2022-09-28T06:45:54.817Z,7.93
2022-09-28T06:46:54.689Z,7.95
2022-09-28T06:47:54.679Z,8.05
2022-09-28T06:48:54.672Z,8.15
2022-09-28T06:49:54.651Z,8.23
2022-09-28T06:50:54.656Z,8.29
2022-09-28T06:51:54.711Z,8.36
2022-09-28T06:52:54.671Z,8.43
2022-09-28T06:53:54.608Z,8.50
2022-09-28T06:54:54.602Z,8.53
2022-09-28T06:55:54.600Z,8.47
2022-09-28T06:56:54.572Z,8.43
2022-09-28T06:57:54.574Z,8.47
2022-09-28T06:58:54.554Z,8.36
2022-09-28T06:59:54.552Z,8.38
2022-09-28T07:00:54.576Z,8.45
2022-09-28T07:01:54.583Z,8.47
2022-09-28T07:02:54.516Z,8.47
2022-09-28T07:03:55.755Z,8.52
2022-09-28T07:04:54.487Z,8.55
2022-09-28T07:05:54.486Z,8.58
2022-09-28T07:06:54.466Z,8.63
2022-09-28T07:07:54.506Z,8.73
2022-09-28T07:09:11.562Z,8.79
2022-09-28T07:09:55.333Z,8.81
2022-09-28T07:10:54.442Z,8.65
2022-09-28T07:11:54.409Z,8.47
2022-09-28T07:12:54.401Z,8.40
2022-09-28T07:13:54.385Z,8.38
2022-09-28T07:14:54.926Z,8.44
2022-09-28T07:15:54.375Z,8.53
2022-09-28T07:17:11.190Z,8.59
2022-09-28T07:18:01.339Z,8.55
2022-09-28T07:18:54.350Z,8.52
2022-09-28T07:19:54.327Z,8.58
2022-09-28T07:20:54.804Z,8.56
2022-09-28T07:22:03.775Z,8.52
2022-09-28T07:22:54.309Z,8.52
2022-09-28T07:23:54.561Z,8.53
2022-09-28T07:24:54.273Z,8.56
2022-09-28T07:25:54.591Z,8.62
2022-09-28T07:26:54.251Z,8.71
2022-09-28T07:27:54.267Z,8.71
2022-09-28T07:28:54.230Z,8.66
2022-09-28T07:29:54.213Z,8.63
2022-09-28T07:30:54.279Z,8.73
2022-09-28T07:31:54.195Z,8.80
2022-09-28T07:32:54.205Z,8.86
2022-09-28T07:33:54.187Z,8.71
2022-09-28T07:34:58.733Z,8.70
2022-09-28T07:35:54.164Z,8.65
2022-09-28T07:36:54.143Z,8.61
2022-09-28T07:37:54.136Z,8.58
2022-09-28T07:38:54.120Z,8.59
2022-09-28T07:39:54.110Z,8.61
2022-09-28T07:40:54.180Z,8.63
2022-09-28T07:41:56.697Z,8.68
2022-09-28T07:42:54.087Z,8.65
2022-09-28T07:43:54.063Z,8.80
2022-09-28T07:44:54.060Z,8.89
2022-09-28T07:45:54.206Z,8.91
2022-09-28T07:46:54.035Z,8.89
2022-09-28T07:47:54.021Z,8.79
2022-09-28T07:48:54.009Z,8.79
2022-09-28T07:49:53.999Z,8.71
2022-09-28T07:50:54.006Z,8.71
2022-09-28T07:51:53.977Z,8.73
2022-09-28T07:52:54.060Z,8.76
2022-09-28T07:53:53.952Z,8.70
2022-09-28T07:54:53.967Z,8.77
2022-09-28T07:55:53.946Z,8.83
2022-09-28T07:56:53.925Z,8.84
2022-09-28T07:57:53.993Z,8.81
2022-09-28T07:58:53.908Z,8.79
2022-09-28T07:59:53.889Z,8.73
2022-09-28T08:00:53.947Z,8.68
2022-09-28T08:01:53.913Z,8.71
2022-09-28T08:02:53.865Z,8.76
2022-09-28T08:03:53.846Z,8.81
2022-09-28T08:04:53.840Z,8.87
2022-09-28T08:05:53.856Z,8.91
2022-09-28T08:06:53.818Z,8.98
2022-09-28T08:07:53.804Z,8.96
2022-09-28T08:08:53.795Z,8.96
2022-09-28T08:09:53.784Z,8.96
2022-09-28T08:10:53.799Z,8.94
2022-09-28T08:11:53.771Z,8.86
2022-09-28T08:12:53.754Z,8.84
2022-09-28T08:13:53.745Z,8.80
2022-09-28T08:14:53.729Z,8.76
2022-09-28T08:15:53.725Z,8.81
2022-09-28T08:16:53.709Z,8.81
2022-09-28T08:17:53.788Z,8.83
2022-09-28T08:18:53.692Z,8.87
2022-09-28T08:19:53.673Z,8.87
2022-09-28T08:20:53.697Z,8.87
2022-09-28T08:21:53.656Z,8.92
2022-09-28T08:22:53.653Z,8.99
2022-09-28T08:23:53.628Z,9.05
2022-09-28T08:24:53.635Z,9.02
2022-09-28T08:25:53.620Z,8.96
2022-09-28T08:26:53.599Z,8.99
2022-09-28T08:27:53.582Z,8.94
2022-09-28T08:28:53.587Z,8.89
2022-09-28T08:29:53.577Z,8.91
2022-09-28T08:30:53.609Z,8.89
2022-09-28T08:31:54.281Z,8.91
2022-09-28T08:32:53.532Z,8.94
2022-09-28T08:33:53.524Z,8.99
2022-09-28T08:34:53.532Z,9.01
2022-09-28T08:35:53.511Z,9.05
2022-09-28T08:36:53.490Z,9.10
2022-09-28T08:37:55.564Z,9.04
2022-09-28T08:38:53.471Z,9.02
2022-09-28T08:39:53.454Z,9.10
2022-09-28T08:40:53.563Z,9.17
2022-09-28T08:41:53.441Z,9.21
2022-09-28T08:42:53.580Z,9.13
2022-09-28T08:43:53.427Z,9.17
2022-09-28T08:44:53.427Z,9.29
2022-09-28T08:45:53.476Z,9.33
2022-09-28T08:46:53.390Z,9.48
2022-09-28T08:47:53.371Z,9.57
2022-09-28T08:49:13.421Z,9.69
2022-09-28T08:50:53.362Z,9.83
2022-09-28T08:51:53.324Z,9.84
2022-09-28T08:52:53.609Z,9.78
2022-09-28T08:53:53.302Z,9.66
2022-09-28T08:54:53.307Z,9.50
2022-09-28T08:55:53.291Z,9.47
2022-09-28T08:56:53.270Z,9.33
2022-09-28T08:57:54.102Z,9.26
2022-09-28T08:58:53.263Z,9.18
2022-09-28T08:59:53.253Z,9.15
2022-09-28T09:00:53.292Z,9.14
2022-09-28T09:01:56.128Z,9.17
2022-09-28T09:02:53.281Z,9.18
2022-09-28T09:03:53.204Z,9.21
2022-09-28T09:04:53.187Z,9.31
2022-09-28T09:05:53.187Z,9.32
2022-09-28T09:06:53.182Z,9.23
2022-09-28T09:07:53.175Z,9.14
2022-09-28T09:08:53.164Z,9.18
2022-09-28T09:09:53.140Z,9.24
2022-09-28T09:10:53.146Z,9.28
2022-09-28T09:11:53.115Z,9.32
2022-09-28T09:13:53.092Z,9.35
2022-09-28T09:14:53.088Z,9.36
2022-09-28T09:15:53.076Z,9.42
2022-09-28T09:16:53.099Z,9.39
2022-09-28T09:17:53.065Z,9.46
2022-09-28T09:18:53.044Z,9.48
2022-09-28T09:19:53.029Z,9.38
2022-09-28T09:20:53.039Z,9.39
2022-09-28T09:21:52.996Z,9.43
2022-09-28T09:22:52.996Z,9.35
2022-09-28T09:23:52.982Z,9.39
2022-09-28T09:24:53.045Z,9.43
2022-09-28T09:25:52.978Z,9.47
2022-09-28T09:26:52.959Z,9.42
2022-09-28T09:27:52.932Z,9.42
2022-09-28T09:28:52.931Z,9.43
2022-09-28T09:29:52.919Z,9.57
2022-09-28T09:30:52.971Z,9.66
2022-09-28T09:31:52.897Z,9.71
2022-09-28T09:32:52.887Z,9.81
2022-09-28T09:33:52.882Z,9.96
2022-09-28T09:34:52.865Z,10.14
2022-09-28T09:35:52.867Z,10.17
2022-09-28T09:36:52.843Z,10.23
2022-09-28T09:37:56.495Z,10.42
2022-09-28T09:38:52.839Z,10.55
2022-09-28T09:39:52.807Z,10.59
2022-09-28T09:40:53.038Z,10.33
2022-09-28T09:41:52.784Z,10.33
2022-09-28T09:42:52.783Z,10.25
2022-09-28T09:43:52.767Z,10.20
2022-09-28T09:44:52.760Z,10.22
2022-09-28T09:45:52.793Z,10.11
2022-09-28T09:46:52.740Z,10.09
2022-09-28T09:47:52.731Z,10.15
2022-09-28T09:48:52.727Z,10.23
2022-09-28T09:49:52.704Z,10.34
2022-09-28T09:50:52.708Z,10.33
2022-09-28T09:51:52.686Z,10.38
2022-09-28T09:52:52.677Z,10.30
2022-09-28T09:53:52.663Z,10.34
2022-09-28T09:54:52.655Z,10.38
2022-09-28T09:55:52.658Z,10.30
2022-09-28T09:56:52.634Z,10.14
2022-09-28T09:57:52.617Z,10.23
2022-09-28T09:58:52.614Z,10.04
2022-09-28T09:59:52.607Z,9.93
2022-09-28T10:00:52.675Z,9.93
2022-09-28T10:01:52.583Z,9.83
2022-09-28T10:02:52.699Z,9.78
2022-09-28T10:03:52.568Z,9.75
2022-09-28T10:04:52.557Z,9.71
2022-09-28T10:05:52.557Z,9.74
2022-09-28T10:06:52.533Z,9.71
2022-09-28T10:07:52.525Z,9.68
2022-09-28T10:08:52.508Z,9.72
2022-09-28T10:09:52.500Z,9.65
2022-09-28T10:10:52.506Z,9.71
2022-09-28T10:11:52.485Z,9.78
2022-09-28T10:12:52.563Z,9.84
2022-09-28T10:13:52.466Z,9.94
2022-09-28T10:14:52.460Z,10.05
2022-09-28T10:15:52.467Z,10.30
2022-09-28T10:16:52.472Z,10.55
2022-09-28T10:17:52.409Z,11.02
2022-09-28T10:18:52.400Z,12.29
2022-09-28T10:19:52.390Z,13.60
2022-09-28T10:20:52.377Z,14.80
2022-09-28T10:21:52.400Z,14.29
2022-09-28T10:22:52.361Z,14.24
2022-09-28T10:23:52.349Z,15.01
2022-09-28T10:24:52.341Z,15.27
2022-09-28T10:25:52.348Z,14.58
2022-09-28T10:26:52.335Z,14.17
2022-09-28T10:27:52.387Z,14.77
2022-09-28T10:28:52.321Z,14.09
2022-09-28T10:29:52.285Z,13.11
2022-09-28T10:30:52.462Z,12.52
2022-09-28T10:31:52.296Z,11.86
2022-09-28T10:32:52.361Z,11.62
2022-09-28T10:33:52.244Z,11.52
2022-09-28T10:34:52.232Z,11.32
2022-09-28T10:35:52.230Z,11.07
2022-09-28T10:36:52.223Z,11.02
2022-09-28T10:37:52.272Z,10.94
2022-09-28T10:38:52.183Z,11.03
2022-09-28T10:39:52.180Z,11.10
2022-09-28T10:40:52.269Z,11.09
2022-09-28T10:41:52.163Z,11.11
2022-09-28T10:42:52.220Z,11.32
2022-09-28T10:43:57.405Z,11.39
2022-09-28T10:44:52.120Z,11.49
2022-09-28T10:45:52.141Z,12.62
2022-09-28T10:46:52.106Z,14.25
2022-09-28T10:47:52.189Z,14.61
2022-09-28T10:48:52.069Z,13.84
2022-09-28T10:49:52.062Z,13.07
2022-09-28T10:50:52.053Z,12.65
2022-09-28T10:51:52.052Z,12.39
2022-09-28T10:52:52.086Z,13.73
2022-09-28T10:53:52.024Z,14.65
2022-09-28T10:54:52.000Z,14.25
2022-09-28T10:55:51.996Z,13.78
2022-09-28T10:56:51.996Z,13.52
2022-09-28T10:57:52.033Z,13.51
2022-09-28T10:58:51.954Z,13.07
2022-09-28T10:59:51.952Z,12.57
2022-09-28T11:00:51.938Z,12.53
2022-09-28T11:01:52.003Z,12.54
2022-09-28T11:02:51.969Z,12.57
2022-09-28T11:03:51.906Z,12.56
2022-09-28T11:04:51.898Z,12.45
2022-09-28T11:05:51.892Z,12.20
2022-09-28T11:06:51.954Z,12.13
2022-09-28T11:07:51.864Z,12.10
2022-09-28T11:08:51.854Z,12.05
2022-09-28T11:09:51.839Z,12.02
2022-09-28T11:10:51.835Z,11.90
2022-09-28T11:11:51.835Z,11.80
2022-09-28T11:12:51.886Z,11.64
2022-09-28T11:13:51.797Z,11.54
2022-09-28T11:14:51.799Z,11.29
2022-09-28T11:15:51.772Z,11.15
2022-09-28T11:16:51.833Z,10.96
2022-09-28T11:17:51.840Z,10.85
2022-09-28T11:18:51.738Z,10.73
2022-09-28T11:19:51.733Z,10.61
2022-09-28T11:20:51.715Z,10.55
2022-09-28T11:21:51.706Z,10.52
2022-09-28T11:22:53.549Z,10.48
2022-09-28T11:23:51.835Z,10.51
2022-09-28T11:24:51.669Z,10.44
2022-09-28T11:25:51.662Z,10.44
2022-09-28T11:26:51.683Z,10.44
2022-09-28T11:27:51.766Z,10.42
2022-09-28T11:28:51.644Z,10.45
2022-09-28T11:29:51.617Z,10.48
2022-09-28T11:30:51.654Z,10.55
2022-09-28T11:31:51.611Z,10.67
2022-09-28T11:32:51.588Z,10.71
2022-09-28T11:33:51.590Z,10.85
2022-09-28T11:35:00.194Z,10.89
2022-09-28T11:35:51.566Z,11.00
2022-09-28T11:36:51.554Z,10.94
2022-09-28T11:37:51.593Z,10.94
2022-09-28T11:38:51.519Z,10.96
2022-09-28T11:39:51.505Z,10.96
2022-09-28T11:40:51.517Z,10.88
2022-09-28T11:41:51.498Z,10.78
2022-09-28T11:42:51.488Z,10.81
2022-09-28T11:43:51.462Z,10.79
2022-09-28T11:44:51.444Z,10.82
2022-09-28T11:45:51.531Z,10.81
2022-09-28T11:46:51.434Z,10.88
2022-09-28T11:47:51.416Z,10.92
2022-09-28T11:48:51.401Z,10.92
2022-09-28T11:49:51.400Z,10.91
2022-09-28T11:50:51.380Z,10.88
2022-09-28T11:51:51.386Z,10.86
2022-09-28T11:52:51.355Z,10.96
2022-09-28T11:53:51.350Z,10.97
2022-09-28T11:54:51.333Z,10.96
2022-09-28T11:55:51.327Z,10.94
2022-09-28T11:56:51.364Z,10.92
2022-09-28T11:57:51.308Z,10.91
2022-09-28T11:58:51.288Z,10.97
2022-09-28T11:59:51.283Z,11.03
2022-09-28T12:00:51.263Z,11.02
2022-09-28T12:01:51.277Z,11.10
2022-09-28T12:02:51.304Z,11.24
2022-09-28T12:03:51.341Z,11.29
2022-09-28T12:04:51.225Z,11.36
2022-09-28T12:05:51.213Z,11.37
2022-09-28T12:06:51.208Z,11.37
2022-09-28T12:07:51.212Z,11.33
2022-09-28T12:08:51.177Z,11.33
2022-09-28T12:09:51.175Z,11.29
2022-09-28T12:10:51.153Z,11.24
2022-09-28T12:11:51.159Z,11.15
2022-09-28T12:12:51.148Z,11.02
2022-09-28T12:13:51.125Z,10.96
2022-09-28T12:14:51.119Z,10.88
2022-09-28T12:16:20.067Z,10.86
2022-09-28T12:17:05.840Z,10.81
2022-09-28T12:17:51.122Z,10.79
2022-09-28T12:18:51.109Z,10.85
2022-09-28T12:19:51.055Z,10.89
2022-09-28T12:20:51.042Z,10.89
2022-09-28T12:21:51.062Z,10.92
2022-09-28T12:22:51.019Z,10.89
2022-09-28T12:23:51.020Z,10.92
2022-09-28T12:24:51.003Z,10.88
2022-09-28T12:25:50.998Z,10.86
2022-09-28T12:26:50.981Z,10.85
2022-09-28T12:27:50.987Z,10.89
2022-09-28T12:28:50.972Z,10.91
2022-09-28T12:29:50.951Z,10.97
2022-09-28T12:30:50.967Z,11.02
2022-09-28T12:31:50.947Z,11.09
2022-09-28T12:32:50.924Z,11.10
2022-09-28T12:33:50.912Z,11.10
2022-09-28T12:34:50.899Z,11.17
2022-09-28T12:35:50.883Z,11.21
2022-09-28T12:36:50.886Z,11.24
2022-09-28T12:37:54.495Z,11.36
2022-09-28T12:39:08.424Z,11.43
2022-09-28T12:39:58.049Z,11.44
2022-09-28T12:40:50.861Z,11.40
2022-09-28T12:41:50.834Z,11.43
2022-09-28T12:42:50.806Z,11.39
2022-09-28T12:43:50.812Z,11.24
2022-09-28T12:44:52.144Z,11.15
2022-09-28T12:46:10.549Z,11.10
2022-09-28T12:46:50.878Z,11.07
2022-09-28T12:47:50.755Z,10.99
2022-09-28T12:49:21.686Z,10.97
2022-09-28T12:50:57.223Z,11.14
2022-09-28T12:51:50.747Z,11.19
2022-09-28T12:52:50.920Z,11.09
2022-09-28T12:53:50.692Z,11.06
2022-09-28T12:54:50.669Z,11.00
2022-09-28T12:55:50.719Z,10.96
2022-09-28T12:56:50.673Z,10.89
2022-09-28T12:57:50.641Z,10.91
2022-09-28T12:58:50.629Z,10.96
2022-09-28T12:59:50.622Z,10.96
2022-09-28T13:00:50.605Z,11.03
2022-09-28T13:01:50.684Z,11.11
2022-09-28T13:02:50.646Z,11.14
2022-09-28T13:03:50.755Z,11.17
2022-09-28T13:04:50.564Z,11.22
2022-09-28T13:05:50.551Z,11.29
2022-09-28T13:06:50.559Z,11.29
2022-09-28T13:07:50.533Z,11.40
2022-09-28T13:08:50.515Z,11.60
2022-09-28T13:09:50.518Z,11.70
2022-09-28T13:10:50.497Z,11.76
2022-09-28T13:11:50.507Z,11.78
2022-09-28T13:12:50.474Z,11.76
2022-09-28T13:13:50.469Z,11.82
2022-09-28T13:14:50.455Z,11.82
2022-09-28T13:15:50.501Z,11.80
2022-09-28T13:16:50.447Z,11.78
2022-09-28T13:17:50.427Z,11.78
2022-09-28T13:18:50.419Z,11.83
2022-09-28T13:19:50.399Z,11.91
2022-09-28T13:20:50.392Z,11.82
2022-09-28T13:21:50.390Z,11.69
2022-09-28T13:22:50.359Z,11.57
2022-09-28T13:23:50.365Z,11.54
2022-09-28T13:24:50.350Z,11.57
2022-09-28T13:25:50.334Z,11.52
2022-09-28T13:26:50.326Z,11.54
2022-09-28T13:27:50.327Z,11.54
2022-09-28T13:28:50.300Z,11.57
2022-09-28T13:29:50.328Z,11.60
2022-09-28T13:30:50.380Z,11.61
2022-09-28T13:31:50.276Z,11.72
2022-09-28T13:32:50.266Z,11.69
2022-09-28T13:33:50.252Z,11.67
2022-09-28T13:34:50.235Z,11.67
2022-09-28T13:35:50.230Z,11.62
2022-09-28T13:36:50.207Z,11.62
2022-09-28T13:37:50.219Z,11.65
2022-09-28T13:38:50.186Z,11.64
2022-09-28T13:39:50.176Z,11.94
2022-09-28T13:40:50.247Z,12.16
2022-09-28T13:41:50.205Z,12.46
2022-09-28T13:42:50.156Z,12.72
2022-09-28T13:43:50.146Z,12.72
2022-09-28T13:44:50.134Z,12.56
2022-09-28T13:45:50.131Z,12.49
2022-09-28T13:46:50.221Z,12.46
2022-09-28T13:47:50.111Z,12.39
2022-09-28T13:48:50.074Z,12.34
2022-09-28T13:49:50.098Z,12.28
2022-09-28T13:50:50.054Z,12.31
2022-09-28T13:51:50.042Z,12.24
2022-09-28T13:52:50.054Z,12.21
2022-09-28T13:53:50.025Z,12.17
2022-09-28T13:54:50.014Z,12.14
2022-09-28T13:55:50.002Z,12.24
2022-09-28T13:56:49.986Z,12.50
2022-09-28T13:57:49.989Z,12.64
2022-09-28T13:58:49.974Z,12.72
2022-09-28T13:59:49.958Z,12.83
2022-09-28T14:00:49.948Z,13.00
2022-09-28T14:01:50.106Z,13.15
2022-09-28T14:02:50.036Z,13.14
2022-09-28T14:03:49.916Z,13.28
2022-09-28T14:04:49.899Z,13.36
2022-09-28T14:05:49.893Z,13.14
2022-09-28T14:06:51.418Z,12.90
2022-09-28T14:07:51.190Z,12.74
2022-09-28T14:08:49.855Z,12.59
2022-09-28T14:09:49.849Z,12.49
2022-09-28T14:10:49.833Z,12.50
2022-09-28T14:11:49.823Z,12.50
2022-09-28T14:12:49.831Z,12.45
2022-09-28T14:13:49.806Z,12.42
2022-09-28T14:14:49.787Z,12.46
2022-09-28T14:15:49.834Z,12.50
2022-09-28T14:16:49.792Z,12.54
2022-09-28T14:17:49.752Z,12.54
2022-09-28T14:18:49.741Z,12.62
2022-09-28T14:19:49.735Z,12.65
2022-09-28T14:20:49.728Z,12.74
2022-09-28T14:21:49.732Z,12.90
2022-09-28T14:22:49.706Z,13.11
2022-09-28T14:23:49.693Z,13.04
2022-09-28T14:24:49.697Z,13.23
2022-09-28T14:25:49.699Z,13.44
2022-09-28T14:26:49.675Z,13.36
2022-09-28T14:27:49.683Z,13.29
2022-09-28T14:28:49.637Z,13.41
2022-09-28T14:29:49.640Z,13.36
2022-09-28T14:30:49.687Z,13.39
2022-09-28T14:31:49.657Z,13.36
2022-09-28T14:32:49.606Z,13.41
2022-09-28T14:33:49.577Z,13.42
2022-09-28T14:34:49.577Z,13.42
2022-09-28T14:35:49.557Z,13.49
2022-09-28T14:36:49.556Z,13.38
2022-09-28T14:37:49.551Z,13.32
2022-09-28T14:38:49.543Z,13.38
2022-09-28T14:39:49.515Z,13.33
2022-09-28T14:40:50.035Z,13.46
2022-09-28T14:41:49.493Z,13.48
2022-09-28T14:42:49.499Z,13.48
2022-09-28T14:43:49.480Z,13.48
2022-09-28T14:44:49.465Z,13.38
2022-09-28T14:45:49.490Z,13.33
2022-09-28T14:46:49.450Z,13.49
2022-09-28T14:47:49.449Z,13.59
2022-09-28T14:48:49.433Z,13.70
2022-09-28T14:49:49.473Z,13.79
2022-09-28T14:50:49.401Z,13.85
2022-09-28T14:51:49.387Z,13.91
2022-09-28T14:52:49.404Z,13.89
2022-09-28T14:53:49.382Z,13.70
2022-09-28T14:54:49.390Z,13.66
2022-09-28T14:55:49.342Z,13.73
2022-09-28T14:56:49.339Z,13.59
2022-09-28T14:57:49.341Z,13.67
2022-09-28T14:58:49.317Z,13.79
2022-09-28T14:59:49.301Z,13.77
2022-09-28T15:00:49.312Z,13.75
2022-09-28T15:01:49.279Z,13.78
2022-09-28T15:02:49.288Z,13.79
2022-09-28T15:03:49.256Z,13.69
2022-09-28T15:04:49.437Z,13.46
2022-09-28T15:05:49.356Z,13.45
2022-09-28T15:06:49.240Z,13.51
2022-09-28T15:07:49.229Z,13.49
2022-09-28T15:08:49.205Z,13.60
2022-09-28T15:09:49.199Z,13.78
2022-09-28T15:10:49.187Z,13.95
2022-09-28T15:11:49.180Z,13.96
2022-09-28T15:12:49.213Z,14.17
2022-09-28T15:13:49.147Z,14.36
2022-09-28T15:14:49.151Z,14.52
2022-09-28T15:15:49.214Z,14.64
2022-09-28T15:16:49.148Z,14.47
2022-09-28T15:17:49.128Z,14.43
2022-09-28T15:18:49.109Z,14.36
2022-09-28T15:19:49.095Z,14.35
2022-09-28T15:20:49.075Z,14.33
2022-09-28T15:21:49.061Z,14.33
2022-09-28T15:22:49.084Z,14.20
2022-09-28T15:23:49.060Z,14.33
2022-09-28T15:24:49.073Z,14.57
2022-09-28T15:25:49.015Z,14.78
2022-09-28T15:26:49.015Z,14.58
2022-09-28T15:27:49.036Z,14.45
2022-09-28T15:28:48.989Z,14.47
2022-09-28T15:29:48.987Z,14.45
2022-09-28T15:30:49.008Z,14.39
2022-09-28T15:31:53.538Z,14.32
2022-09-28T15:32:49.008Z,14.33
2022-09-28T15:33:48.931Z,14.09
2022-09-28T15:34:48.943Z,14.09
2022-09-28T15:35:48.917Z,14.02
2022-09-28T15:36:48.901Z,14.00
2022-09-28T15:37:48.912Z,13.91
2022-09-28T15:38:48.888Z,13.85
2022-09-28T15:39:48.871Z,13.91
2022-09-28T15:40:48.944Z,13.84
2022-09-28T15:41:48.844Z,13.78
2022-09-28T15:42:48.867Z,13.85
2022-09-28T15:43:48.827Z,13.75
2022-09-28T15:44:48.817Z,13.67
2022-09-28T15:45:48.868Z,13.71
2022-09-28T15:46:48.800Z,13.54
2022-09-28T15:47:48.797Z,13.49
2022-09-28T15:48:48.785Z,13.55
2022-09-28T15:49:48.766Z,13.42
2022-09-28T15:50:48.753Z,13.26
2022-09-28T15:51:48.753Z,13.20
2022-09-28T15:52:48.734Z,13.15
2022-09-28T15:53:48.799Z,13.04
2022-09-28T15:54:48.710Z,13.00
2022-09-28T15:55:48.696Z,13.01
2022-09-28T15:56:48.695Z,13.05
2022-09-28T15:57:48.674Z,12.97
2022-09-28T15:58:48.682Z,13.01
2022-09-28T15:59:48.652Z,12.92
2022-09-28T16:00:48.652Z,12.75
2022-09-28T16:01:48.716Z,12.62
2022-09-28T16:02:48.699Z,12.57
2022-09-28T16:03:48.607Z,12.49
2022-09-28T16:04:48.606Z,12.34
2022-09-28T16:05:48.584Z,12.24
2022-09-28T16:06:48.587Z,12.12
2022-09-28T16:07:51.568Z,12.07
2022-09-28T16:08:48.564Z,12.01
2022-09-28T16:09:48.554Z,11.85
2022-09-28T16:10:48.536Z,11.73
2022-09-28T16:11:48.521Z,11.75
2022-09-28T16:12:48.534Z,11.75
2022-09-28T16:13:48.501Z,11.82
2022-09-28T16:14:48.496Z,11.80
2022-09-28T16:15:48.548Z,11.86
2022-09-28T16:16:48.473Z,11.91
2022-09-28T16:17:48.456Z,11.86
2022-09-28T16:18:48.471Z,11.76
2022-09-28T16:19:48.447Z,11.65
2022-09-28T16:20:48.426Z,11.67
2022-09-28T16:21:48.413Z,11.61
2022-09-28T16:22:48.405Z,11.55
2022-09-28T16:23:48.408Z,11.47
2022-09-28T16:24:48.384Z,11.36
2022-09-28T16:25:48.375Z,11.29
2022-09-28T16:26:48.368Z,11.18
2022-09-28T16:27:48.347Z,11.14
2022-09-28T16:28:48.359Z,11.04
2022-09-28T16:29:48.332Z,10.94
2022-09-28T16:30:48.383Z,10.84
2022-09-28T16:31:48.309Z,10.76
2022-09-28T16:32:48.307Z,10.71
2022-09-28T16:33:48.301Z,10.66
2022-09-28T16:34:48.275Z,10.60
2022-09-28T16:35:48.258Z,10.48
2022-09-28T16:36:48.259Z,10.41
2022-09-28T16:37:48.234Z,10.33
2022-09-28T16:38:48.268Z,10.27
2022-09-28T16:39:48.217Z,10.27
2022-09-28T16:40:48.293Z,10.26
2022-09-28T16:41:48.202Z,10.26
2022-09-28T16:42:49.451Z,10.22
2022-09-28T16:43:48.190Z,10.20
2022-09-28T16:44:48.169Z,10.26
2022-09-28T16:45:48.178Z,10.29
2022-09-28T16:46:48.247Z,10.20
2022-09-28T16:47:48.138Z,10.09
2022-09-28T16:48:48.142Z,10.08
2022-09-28T16:49:48.110Z,9.99
2022-09-28T16:50:48.104Z,9.89
2022-09-28T16:51:48.080Z,9.83
2022-09-28T16:52:48.086Z,9.76
2022-09-28T16:53:48.088Z,9.68
2022-09-28T16:54:48.055Z,9.65
2022-09-28T16:55:48.043Z,9.66
2022-09-28T16:56:48.062Z,9.69
2022-09-28T16:57:48.023Z,9.71
2022-09-28T16:58:48.030Z,9.68
2022-09-28T16:59:48.003Z,9.60
2022-09-28T17:00:47.983Z,9.54
2022-09-28T17:01:48.011Z,9.48
2022-09-28T17:02:47.989Z,9.42
2022-09-28T17:03:47.965Z,9.35
2022-09-28T17:04:47.956Z,9.28
2022-09-28T17:05:47.950Z,9.24
2022-09-28T17:06:47.918Z,9.17
2022-09-28T17:07:47.924Z,9.13
2022-09-28T17:08:47.910Z,9.13
2022-09-28T17:09:47.895Z,9.04
2022-09-28T17:11:09.904Z,8.99
2022-09-28T17:11:47.873Z,9.04
2022-09-28T17:12:47.858Z,9.04
2022-09-28T17:13:47.867Z,9.04
2022-09-28T17:14:47.836Z,9.01
2022-09-28T17:15:47.897Z,8.96
2022-09-28T17:17:07.447Z,8.95
2022-09-28T17:17:47.819Z,8.92
2022-09-28T17:18:47.811Z,8.91
2022-09-28T17:19:47.786Z,8.86
2022-09-28T17:20:47.791Z,8.86
2022-09-28T17:21:47.760Z,8.81
2022-09-28T17:22:47.749Z,8.77
2022-09-28T17:23:47.751Z,8.74
2022-09-28T17:24:47.724Z,8.71
2022-09-28T17:25:47.706Z,8.66
2022-09-28T17:26:47.709Z,8.66
2022-09-28T17:27:47.709Z,8.65
2022-09-28T17:28:47.709Z,8.59
2022-09-28T17:29:47.679Z,8.58
2022-09-28T17:30:47.717Z,8.58
2022-09-28T17:31:47.653Z,8.56
2022-09-28T17:32:47.649Z,8.53
2022-09-28T17:33:47.642Z,8.55
2022-09-28T17:34:55.846Z,8.52
2022-09-28T17:35:47.631Z,8.45
2022-09-28T17:36:47.610Z,8.45
2022-09-28T17:37:47.584Z,8.41
2022-09-28T17:38:47.600Z,8.36
2022-09-28T17:39:47.572Z,8.30
2022-09-28T17:40:47.590Z,8.28
2022-09-28T17:41:47.553Z,8.26
2022-09-28T17:42:47.544Z,8.20
2022-09-28T17:43:47.537Z,8.19
2022-09-28T17:44:47.551Z,8.19
2022-09-28T17:45:47.501Z,8.16
2022-09-28T17:46:47.713Z,8.11
2022-09-28T17:47:47.482Z,8.10
2022-09-28T17:48:47.493Z,8.10
2022-09-28T17:49:47.462Z,8.12
2022-09-28T17:50:47.479Z,8.11
2022-09-28T17:51:47.442Z,8.10
2022-09-28T17:52:47.434Z,8.08